Time;durP1;ratioP1;P1;durP2;ratioP2;P2;SDS_P1;SDS_P2;PMS_P1;PMS_P2;Temp;Humidity;BMP_temperature;BMP_pressure;BME280_temperature;BME280_humidity;BME280_pressure;Samples;Min_cycle;Max_cycle;Signal;HPM_P1;HPM_P2
2022/02/28 00:01:07;;;;;;;14.52;9.75;;;;;;;;;;5072390;28;20052;-63
2022/02/28 00:03:34;;;;;;;15.85;9.82;;;;;;;;;;5072427;28;20079;-62
2022/02/28 00:06:01;;;;;;;18.67;10.13;;;;;;;;;;5072523;28;20047;-63
2022/02/28 00:08:28;;;;;;;16.52;10.05;;;;;;;;;;5072137;28;20501;-63
2022/02/28 00:10:55;;;;;;;16.00;9.90;;;;;;;;;;5072468;28;20046;-63
2022/02/28 00:13:22;;;;;;;19.00;9.80;;;;;;;;;;5072186;28;21913;-63
2022/02/28 00:15:50;;;;;;;16.10;9.27;;;;;;;;;;5072260;28;20454;-63
2022/02/28 00:18:17;;;;;;;15.68;9.20;;;;;;;;;;5072235;28;20040;-63
2022/02/28 00:20:44;;;;;;;19.98;10.88;;;;;;;;;;5072001;28;20049;-63
2022/02/28 00:23:11;;;;;;;17.50;10.48;;;;;;;;;;5072045;28;20052;-63
2022/02/28 00:25:38;;;;;;;20.05;11.18;;;;;;;;;;5072174;28;20083;-64
2022/02/28 00:28:06;;;;;;;18.13;10.63;;;;;;;;;;5071653;28;20413;-63
2022/02/28 00:30:34;;;;;;;17.60;9.90;;;;;;;;;;5072021;28;20044;-63
2022/02/28 00:33:03;;;;;;;17.27;9.85;;;;;;;;;;5072012;28;20049;-63
2022/02/28 00:35:31;;;;;;;16.02;9.48;;;;;;;;;;5072036;28;20048;-63
2022/02/28 00:37:58;;;;;;;18.40;10.10;;;;;;;;;;5071782;28;20052;-63
2022/02/28 00:40:26;;;;;;;18.80;10.90;;;;;;;;;;5071879;28;20079;-63
2022/02/28 00:42:53;;;;;;;21.73;10.45;;;;;;;;;;5071764;28;20052;-63
2022/02/28 00:45:20;;;;;;;18.27;10.52;;;;;;;;;;5071780;28;20510;-62
2022/02/28 00:47:47;;;;;;;21.50;11.20;;;;;;;;;;5071730;28;20574;-63
2022/02/28 00:50:15;;;;;;;17.60;10.05;;;;;;;;;;5071661;28;20044;-62
2022/02/28 00:52:43;;;;;;;18.58;11.15;;;;;;;;;;5071833;28;20070;-63
2022/02/28 00:55:12;;;;;;;20.67;10.80;;;;;;;;;;5073270;28;20040;-63
2022/02/28 00:57:40;;;;;;;16.15;9.90;;;;;;;;;;5075641;28;20058;-63
2022/02/28 01:00:10;;;;;;;16.40;10.10;;;;;;;;;;5076050;28;20461;-62
2022/02/28 01:02:37;;;;;;;19.02;10.52;;;;;;;;;;5075936;28;20045;-62
2022/02/28 01:05:06;;;;;;;19.23;10.27;;;;;;;;;;5075707;28;20409;-63
2022/02/28 01:07:35;;;;;;;19.45;11.30;;;;;;;;;;5075540;28;20049;-63
2022/02/28 01:10:02;;;;;;;18.10;10.32;;;;;;;;;;5075659;28;20067;-63
2022/02/28 01:12:29;;;;;;;18.50;10.93;;;;;;;;;;5075797;28;20124;-63
2022/02/28 01:14:56;;;;;;;18.42;11.25;;;;;;;;;;5075724;28;20071;-62
2022/02/28 01:17:24;;;;;;;19.45;10.27;;;;;;;;;;5075422;28;20481;-63
2022/02/28 01:19:51;;;;;;;19.15;9.88;;;;;;;;;;5075592;28;20536;-63
2022/02/28 01:22:18;;;;;;;18.08;10.50;;;;;;;;;;5075374;28;20049;-64
2022/02/28 01:24:46;;;;;;;19.73;10.63;;;;;;;;;;5075332;28;20052;-64
2022/02/28 01:27:13;;;;;;;17.20;10.00;;;;;;;;;;5075057;28;20045;-64
2022/02/28 01:29:40;;;;;;;17.90;11.07;;;;;;;;;;5075293;28;20135;-63
2022/02/28 01:32:08;;;;;;;18.25;10.52;;;;;;;;;;5075658;28;20051;-63
2022/02/28 01:34:35;;;;;;;19.00;10.32;;;;;;;;;;5075622;28;20401;-63
2022/02/28 01:37:02;;;;;;;20.45;10.48;;;;;;;;;;5074843;28;20058;-61
2022/02/28 01:39:29;;;;;;;17.83;10.05;;;;;;;;;;5074889;28;20057;-63
2022/02/28 01:41:57;;;;;;;19.10;11.52;;;;;;;;;;5075105;28;20163;-62
2022/02/28 01:44:24;;;;;;;20.70;10.50;;;;;;;;;;5074914;28;20052;-62
2022/02/28 01:46:51;;;;;;;17.27;10.13;;;;;;;;;;5074821;28;20044;-62
2022/02/28 01:49:19;;;;;;;17.00;9.85;;;;;;;;;;5074807;28;20408;-63
2022/02/28 01:51:46;;;;;;;13.50;9.38;;;;;;;;;;5074684;28;20055;-62
2022/02/28 01:54:13;;;;;;;16.85;9.88;;;;;;;;;;5074806;28;20041;-63
2022/02/28 01:56:40;;;;;;;19.48;10.45;;;;;;;;;;5074464;28;20523;-62
2022/02/28 01:59:08;;;;;;;23.23;10.88;;;;;;;;;;5074623;28;20045;-62
2022/02/28 02:01:35;;;;;;;21.55;11.13;;;;;;;;;;5074768;28;20040;-62
2022/02/28 02:04:02;;;;;;;17.45;9.77;;;;;;;;;;5074551;28;20114;-63
2022/02/28 02:06:29;;;;;;;16.75;9.90;;;;;;;;;;5073442;28;20041;-62
2022/02/28 02:08:56;;;;;;;18.65;11.05;;;;;;;;;;5074586;28;20067;-63
2022/02/28 02:11:23;;;;;;;19.27;10.52;;;;;;;;;;5074504;28;20040;-62
2022/02/28 02:13:50;;;;;;;18.27;11.07;;;;;;;;;;5074540;28;20047;-62
2022/02/28 02:16:19;;;;;;;20.52;10.88;;;;;;;;;;5074325;28;20044;-63
2022/02/28 02:18:46;;;;;;;18.92;10.40;;;;;;;;;;5074018;28;20044;-63
2022/02/28 02:21:14;;;;;;;16.98;10.25;;;;;;;;;;5074160;28;20055;-63
2022/02/28 02:23:42;;;;;;;16.88;9.55;;;;;;;;;;5075905;28;20044;-62
2022/02/28 02:26:14;;;;;;;18.17;10.23;;;;;;;;;;5077436;28;20070;-62
2022/02/28 02:28:41;;;;;;;19.17;10.20;;;;;;;;;;5077218;28;20071;-60
2022/02/28 02:31:09;;;;;;;20.20;10.80;;;;;;;;;;5077417;28;20135;-62
2022/02/28 02:33:37;;;;;;;19.20;10.75;;;;;;;;;;5077104;28;20532;-62
2022/02/28 02:36:07;;;;;;;17.52;10.50;;;;;;;;;;5077190;28;20052;-62
2022/02/28 02:38:37;;;;;;;19.42;10.55;;;;;;;;;;5077117;28;20474;-62
2022/02/28 02:41:07;;;;;;;17.73;10.77;;;;;;;;;;5077311;28;20045;-62
2022/02/28 02:43:34;;;;;;;18.60;10.27;;;;;;;;;;5077812;28;20056;-62
2022/02/28 02:46:01;;;;;;;20.83;10.20;;;;;;;;;;5076939;28;20054;-62
2022/02/28 02:48:28;;;;;;;21.48;10.93;;;;;;;;;;5076866;28;20059;-62
2022/02/28 02:50:56;;;;;;;19.90;10.43;;;;;;;;;;5076678;28;20067;-60
2022/02/28 02:53:23;;;;;;;20.08;11.07;;;;;;;;;;5077051;28;20044;-61
2022/02/28 02:55:52;;;;;;;17.42;10.10;;;;;;;;;;5076706;28;20040;-60
2022/02/28 02:58:19;;;;;;;20.80;11.10;;;;;;;;;;5075940;28;20465;-60
2022/02/28 03:00:49;;;;;;;17.65;9.88;;;;;;;;;;5076873;28;20059;-61
2022/02/28 03:03:17;;;;;;;18.60;10.57;;;;;;;;;;5077285;28;20044;-61
2022/02/28 03:05:44;;;;;;;18.98;10.32;;;;;;;;;;5076976;28;20048;-61
2022/02/28 03:08:11;;;;;;;17.73;10.57;;;;;;;;;;5076912;28;20048;-61
2022/02/28 03:10:38;;;;;;;19.98;10.80;;;;;;;;;;5076430;28;20108;-62
2022/02/28 03:13:07;;;;;;;17.48;10.05;;;;;;;;;;5076366;28;20049;-62
2022/02/28 03:15:34;;;;;;;21.65;10.90;;;;;;;;;;5076468;28;20056;-62
2022/02/28 03:18:01;;;;;;;16.83;9.73;;;;;;;;;;5075686;28;20143;-62
2022/02/28 03:20:28;;;;;;;16.05;9.55;;;;;;;;;;5075983;28;20046;-61
2022/02/28 03:22:55;;;;;;;16.73;9.55;;;;;;;;;;5076305;28;20410;-62
2022/02/28 03:25:22;;;;;;;17.90;10.75;;;;;;;;;;5076782;28;20070;-61
2022/02/28 03:27:49;;;;;;;18.02;9.63;;;;;;;;;;5075990;28;20052;-62
2022/02/28 03:30:18;;;;;;;19.90;10.15;;;;;;;;;;5076554;28;20103;-62
2022/02/28 03:32:45;;;;;;;15.05;10.23;;;;;;;;;;5076195;28;20104;-62
2022/02/28 03:35:12;;;;;;;18.40;10.27;;;;;;;;;;5076343;28;20528;-62
2022/02/28 03:37:39;;;;;;;16.98;9.88;;;;;;;;;;5076466;28;20045;-61
2022/02/28 03:40:07;;;;;;;17.00;10.30;;;;;;;;;;5075904;28;20052;-57
2022/02/28 03:42:34;;;;;;;16.98;9.30;;;;;;;;;;5076477;28;20132;-61
2022/02/28 03:45:01;;;;;;;17.45;10.30;;;;;;;;;;5076447;28;20280;-62
2022/02/28 03:47:30;;;;;;;19.05;10.80;;;;;;;;;;5076019;28;20044;-61
2022/02/28 03:49:57;;;;;;;20.35;10.23;;;;;;;;;;5076545;28;20044;-62
2022/02/28 03:52:24;;;;;;;17.95;10.55;;;;;;;;;;5076022;28;20424;-60
2022/02/28 03:54:51;;;;;;;18.13;10.15;;;;;;;;;;5076024;28;20049;-62
2022/02/28 03:57:18;;;;;;;17.77;10.20;;;;;;;;;;5075928;28;20102;-61
2022/02/28 03:59:44;;;;;;;16.50;10.15;;;;;;;;;;5076528;28;20040;-62
2022/02/28 04:02:12;;;;;;;19.40;10.10;;;;;;;;;;5076517;28;20041;-62
2022/02/28 04:04:40;;;;;;;20.08;10.52;;;;;;;;;;5076451;28;20459;-62
2022/02/28 04:07:09;;;;;;;18.05;9.57;;;;;;;;;;5076154;28;20108;-62
2022/02/28 04:09:37;;;;;;;16.42;10.10;;;;;;;;;;5076311;28;20062;-61
2022/02/28 04:12:05;;;;;;;18.13;10.98;;;;;;;;;;5075439;28;20041;-62
2022/02/28 04:14:32;;;;;;;18.83;9.77;;;;;;;;;;5076654;28;20051;-62
2022/02/28 04:16:59;;;;;;;18.70;9.93;;;;;;;;;;5075891;28;20470;-61
2022/02/28 04:19:26;;;;;;;18.80;9.55;;;;;;;;;;5075928;28;20131;-62
2022/02/28 04:21:54;;;;;;;17.92;10.52;;;;;;;;;;5076621;28;20487;-62
2022/02/28 04:24:21;;;;;;;17.25;10.15;;;;;;;;;;5076453;28;20048;-61
2022/02/28 04:26:48;;;;;;;18.33;10.27;;;;;;;;;;5075411;28;20570;-61
2022/02/28 04:29:15;;;;;;;18.48;10.20;;;;;;;;;;5075584;28;20071;-62
2022/02/28 04:31:42;;;;;;;17.63;10.10;;;;;;;;;;5076046;28;20127;-60
2022/02/28 04:34:09;;;;;;;18.10;10.32;;;;;;;;;;5075258;28;20045;-59
2022/02/28 04:36:36;;;;;;;17.98;9.68;;;;;;;;;;5075114;28;20052;-60
2022/02/28 04:39:05;;;;;;;20.35;10.18;;;;;;;;;;5074900;28;20048;-62
2022/02/28 04:41:32;;;;;;;20.40;10.32;;;;;;;;;;5074540;28;20052;-62
2022/02/28 04:43:59;;;;;;;18.27;10.68;;;;;;;;;;5075436;28;20051;-61
2022/02/28 04:46:26;;;;;;;19.05;10.27;;;;;;;;;;5075494;28;20108;-61
2022/02/28 04:48:53;;;;;;;16.48;9.68;;;;;;;;;;5075009;28;20127;-62
2022/02/28 04:51:20;;;;;;;19.02;10.18;;;;;;;;;;5074765;28;20055;-62
2022/02/28 04:53:47;;;;;;;18.50;10.68;;;;;;;;;;5075024;28;20080;-62
2022/02/28 04:56:15;;;;;;;18.00;10.32;;;;;;;;;;5075524;28;20051;-62
2022/02/28 04:58:42;;;;;;;17.90;10.32;;;;;;;;;;5074873;28;20047;-62
2022/02/28 05:01:09;;;;;;;16.92;10.23;;;;;;;;;;5075147;28;20132;-62
2022/02/28 05:03:36;;;;;;;16.65;10.20;;;;;;;;;;5075099;28;20101;-59
2022/02/28 05:06:03;;;;;;;18.77;10.73;;;;;;;;;;5075382;28;20048;-60
2022/02/28 05:08:30;;;;;;;21.90;11.18;;;;;;;;;;5074325;28;20532;-61
2022/02/28 05:10:58;;;;;;;17.42;10.77;;;;;;;;;;5074789;28;20482;-61
2022/02/28 05:13:26;;;;;;;19.88;10.27;;;;;;;;;;5075095;28;20505;-61
2022/02/28 05:15:53;;;;;;;20.33;11.05;;;;;;;;;;5074886;28;20094;-61
2022/02/28 05:18:20;;;;;;;19.42;11.05;;;;;;;;;;5075483;28;20048;-61
2022/02/28 05:20:47;;;;;;;21.50;11.57;;;;;;;;;;5075338;28;20055;-61
2022/02/28 05:23:14;;;;;;;19.77;10.60;;;;;;;;;;5075135;28;20133;-60
2022/02/28 05:25:41;;;;;;;18.48;10.35;;;;;;;;;;5074950;28;20048;-62
2022/02/28 05:28:08;;;;;;;21.52;11.05;;;;;;;;;;5074438;28;20044;-62
2022/02/28 05:30:36;;;;;;;22.45;11.70;;;;;;;;;;5074462;28;20123;-62
2022/02/28 05:33:03;;;;;;;17.25;10.75;;;;;;;;;;5074127;28;20044;-62
2022/02/28 05:35:31;;;;;;;18.10;10.75;;;;;;;;;;5074235;28;20044;-62
2022/02/28 05:37:58;;;;;;;18.52;11.40;;;;;;;;;;5074570;28;20059;-62
2022/02/28 05:40:25;;;;;;;17.60;10.13;;;;;;;;;;5074929;28;20050;-62
2022/02/28 05:42:52;;;;;;;21.83;11.65;;;;;;;;;;5076894;28;20413;-60
2022/02/28 05:45:19;;;;;;;18.90;10.85;;;;;;;;;;5078098;28;20135;-60
2022/02/28 05:47:48;;;;;;;19.27;11.13;;;;;;;;;;5078148;28;20048;-62
2022/02/28 05:50:15;;;;;;;19.60;11.10;;;;;;;;;;5077881;28;20045;-62
2022/02/28 05:52:45;;;;;;;21.17;12.13;;;;;;;;;;5078037;28;20104;-62
2022/02/28 05:55:13;;;;;;;18.77;10.98;;;;;;;;;;5077986;28;20048;-61
2022/02/28 05:57:40;;;;;;;19.98;10.73;;;;;;;;;;5077695;28;20417;-62
2022/02/28 06:00:09;;;;;;;18.35;11.38;;;;;;;;;;5078943;28;20052;-62
2022/02/28 06:02:36;;;;;;;20.27;10.70;;;;;;;;;;5079250;28;20102;-62
2022/02/28 06:05:05;;;;;;;19.27;11.02;;;;;;;;;;5077656;28;20048;-62
2022/02/28 06:07:32;;;;;;;19.33;10.98;;;;;;;;;;5076920;28;20055;-61
2022/02/28 06:09:59;;;;;;;19.42;11.05;;;;;;;;;;5077872;28;20087;-61
2022/02/28 06:12:26;;;;;;;22.27;11.27;;;;;;;;;;5078265;28;20098;-62
2022/02/28 06:14:53;;;;;;;20.17;11.20;;;;;;;;;;5077745;28;20472;-62
2022/02/28 06:17:20;;;;;;;21.02;12.07;;;;;;;;;;5077519;28;20477;-60
2022/02/28 06:19:48;;;;;;;22.38;11.23;;;;;;;;;;5077652;28;20040;-61
2022/02/28 06:22:17;;;;;;;18.40;10.93;;;;;;;;;;5078084;28;20052;-60
2022/02/28 06:24:44;;;;;;;21.08;12.00;;;;;;;;;;5077945;28;20481;-60
2022/02/28 06:27:11;;;;;;;19.55;10.63;;;;;;;;;;5077562;28;20052;-59
2022/02/28 06:29:39;;;;;;;18.85;10.77;;;;;;;;;;5077404;28;20050;-61
2022/02/28 06:32:07;;;;;;;19.08;10.95;;;;;;;;;;5078377;28;20074;-61
2022/02/28 06:34:34;;;;;;;21.73;11.32;;;;;;;;;;5077803;28;20053;-61
2022/02/28 06:37:01;;;;;;;21.17;12.07;;;;;;;;;;5076414;28;20053;-62
2022/02/28 06:39:30;;;;;;;18.27;10.63;;;;;;;;;;5077674;28;20044;-61
2022/02/28 06:41:57;;;;;;;20.60;11.25;;;;;;;;;;5077822;28;20051;-62
2022/02/28 06:44:24;;;;;;;18.98;11.05;;;;;;;;;;5078076;28;20060;-62
2022/02/28 06:46:52;;;;;;;19.95;11.65;;;;;;;;;;5077944;28;20416;-62
2022/02/28 06:49:19;;;;;;;17.45;11.18;;;;;;;;;;5077317;28;20052;-61
2022/02/28 06:51:46;;;;;;;18.75;11.32;;;;;;;;;;5077632;28;20569;-61
2022/02/28 06:54:13;;;;;;;21.73;11.02;;;;;;;;;;5077308;28;20053;-62
2022/02/28 06:56:41;;;;;;;18.70;10.13;;;;;;;;;;5077225;28;20144;-61
2022/02/28 06:59:09;;;;;;;17.13;11.10;;;;;;;;;;5076890;28;20060;-62
2022/02/28 07:01:36;;;;;;;19.42;10.88;;;;;;;;;;5077679;28;20091;-61
2022/02/28 07:04:03;;;;;;;20.00;11.02;;;;;;;;;;5076867;28;20048;-62
2022/02/28 07:06:31;;;;;;;22.13;11.85;;;;;;;;;;5076643;28;20472;-62
2022/02/28 07:08:58;;;;;;;19.42;11.20;;;;;;;;;;5076977;28;20063;-62
2022/02/28 07:11:25;;;;;;;20.75;12.20;;;;;;;;;;5076537;28;20474;-61
2022/02/28 07:13:53;;;;;;;18.42;11.90;;;;;;;;;;5076482;28;20044;-61
2022/02/28 07:16:20;;;;;;;20.20;11.25;;;;;;;;;;5076453;28;20136;-62
2022/02/28 07:18:47;;;;;;;20.25;11.85;;;;;;;;;;5076144;28;20049;-62
2022/02/28 07:21:14;;;;;;;21.50;12.27;;;;;;;;;;5076433;28;20052;-61
2022/02/28 07:23:41;;;;;;;18.88;11.15;;;;;;;;;;5075792;28;20049;-61
2022/02/28 07:26:08;;;;;;;19.90;11.25;;;;;;;;;;5075885;28;20512;-61
2022/02/28 07:28:35;;;;;;;21.00;11.27;;;;;;;;;;5074990;28;20100;-61
2022/02/28 07:31:04;;;;;;;21.75;11.82;;;;;;;;;;5075375;28;20417;-62
2022/02/28 07:33:32;;;;;;;22.40;12.07;;;;;;;;;;5075863;28;20444;-62
2022/02/28 07:35:59;;;;;;;21.08;12.43;;;;;;;;;;5075877;28;20161;-61
2022/02/28 07:38:26;;;;;;;22.90;12.95;;;;;;;;;;5075097;28;20048;-62
2022/02/28 07:40:53;;;;;;;27.70;13.02;;;;;;;;;;5074884;28;20045;-62
2022/02/28 07:43:20;;;;;;;20.23;12.30;;;;;;;;;;5075178;28;20055;-62
2022/02/28 07:45:50;;;;;;;19.63;12.10;;;;;;;;;;5074886;28;20135;-62
2022/02/28 07:48:18;;;;;;;24.47;12.00;;;;;;;;;;5074846;28;20051;-62
2022/02/28 07:50:45;;;;;;;18.95;11.52;;;;;;;;;;5075152;28;20773;-62
2022/02/28 07:53:13;;;;;;;20.58;11.68;;;;;;;;;;5075329;28;20041;-62
2022/02/28 07:55:40;;;;;;;20.17;12.23;;;;;;;;;;5075075;28;20114;-61
2022/02/28 07:58:07;;;;;;;23.95;13.75;;;;;;;;;;5074398;28;20101;-62
2022/02/28 08:00:34;;;;;;;21.70;12.60;;;;;;;;;;5074496;28;20040;-60
2022/02/28 08:03:01;;;;;;;21.60;11.75;;;;;;;;;;5075101;28;20046;-62
2022/02/28 08:05:29;;;;;;;19.10;10.93;;;;;;;;;;5074560;28;20079;-60
2022/02/28 08:07:56;;;;;;;20.95;12.45;;;;;;;;;;5075586;28;20055;-62
2022/02/28 08:10:24;;;;;;;17.15;11.18;;;;;;;;;;5075267;28;20083;-62
2022/02/28 08:12:51;;;;;;;20.50;12.30;;;;;;;;;;5075337;28;20124;-61
2022/02/28 08:15:18;;;;;;;19.20;11.05;;;;;;;;;;5075002;28;20126;-61
2022/02/28 08:17:47;;;;;;;20.25;11.90;;;;;;;;;;5074973;28;20671;-63
2022/02/28 08:20:14;;;;;;;20.42;11.88;;;;;;;;;;5075183;28;20054;-61
2022/02/28 08:22:42;;;;;;;21.92;12.65;;;;;;;;;;5075512;28;20076;-61
2022/02/28 08:25:10;;;;;;;21.27;11.52;;;;;;;;;;5075998;28;20127;-60
2022/02/28 08:27:37;;;;;;;21.02;12.23;;;;;;;;;;5075111;28;20071;-61
2022/02/28 08:30:05;;;;;;;19.15;11.55;;;;;;;;;;5074490;28;20066;-62
2022/02/28 08:32:32;;;;;;;20.33;11.85;;;;;;;;;;5075212;28;20142;-62
2022/02/28 08:35:00;;;;;;;20.20;12.07;;;;;;;;;;5075368;28;20048;-62
2022/02/28 08:37:27;;;;;;;18.25;11.40;;;;;;;;;;5075300;28;20095;-62
2022/02/28 08:39:55;;;;;;;22.45;11.88;;;;;;;;;;5074724;28;20682;-62
2022/02/28 08:42:22;;;;;;;18.48;10.60;;;;;;;;;;5075691;28;20123;-62
2022/02/28 08:44:49;;;;;;;19.15;11.15;;;;;;;;;;5074982;28;20048;-62
2022/02/28 08:47:16;;;;;;;22.75;12.63;;;;;;;;;;5074727;28;20044;-62
2022/02/28 08:49:43;;;;;;;18.00;10.77;;;;;;;;;;5074815;28;20045;-62
2022/02/28 08:52:10;;;;;;;25.02;11.38;;;;;;;;;;5075904;28;20045;-63
2022/02/28 08:54:37;;;;;;;20.63;11.80;;;;;;;;;;5074593;28;20048;-62
2022/02/28 08:57:06;;;;;;;21.17;11.57;;;;;;;;;;5074592;28;20048;-63
2022/02/28 08:59:34;;;;;;;21.15;11.02;;;;;;;;;;5073988;28;20055;-62
2022/02/28 09:02:02;;;;;;;18.88;11.80;;;;;;;;;;5073763;28;20045;-63
2022/02/28 09:04:29;;;;;;;22.10;12.43;;;;;;;;;;5073610;28;20115;-62
2022/02/28 09:06:58;;;;;;;21.10;12.60;;;;;;;;;;5073093;28;20080;-61
2022/02/28 09:09:25;;;;;;;19.25;10.07;;;;;;;;;;5072109;28;20074;-60
2022/02/28 09:11:53;;;;;;;16.17;10.07;;;;;;;;;;5072781;28;20048;-62
2022/02/28 09:14:21;;;;;;;18.33;10.68;;;;;;;;;;5072538;28;20071;-63
2022/02/28 09:16:48;;;;;;;17.30;9.70;;;;;;;;;;5074961;28;20037;-63
2022/02/28 09:19:15;;;;;;;17.75;9.43;;;;;;;;;;5075985;28;20054;-63
2022/02/28 09:21:42;;;;;;;14.48;8.45;;;;;;;;;;5075865;28;20041;-63
2022/02/28 09:24:10;;;;;;;15.93;9.13;;;;;;;;;;5076881;28;20044;-62
2022/02/28 09:26:37;;;;;;;17.00;9.68;;;;;;;;;;5076289;28;20080;-63
2022/02/28 09:29:05;;;;;;;17.10;9.85;;;;;;;;;;5075845;28;20052;-63
2022/02/28 09:31:34;;;;;;;15.10;8.85;;;;;;;;;;5076390;28;20063;-62
2022/02/28 09:34:01;;;;;;;20.00;10.40;;;;;;;;;;5076388;28;20396;-62
2022/02/28 09:36:28;;;;;;;15.85;9.45;;;;;;;;;;5075872;28;20378;-62
2022/02/28 09:38:55;;;;;;;15.60;9.68;;;;;;;;;;5076174;28;20051;-63
2022/02/28 09:41:23;;;;;;;16.05;9.70;;;;;;;;;;5076120;28;20036;-62
2022/02/28 09:43:52;;;;;;;16.00;10.05;;;;;;;;;;5073751;28;20059;-61
2022/02/28 09:46:19;;;;;;;18.15;10.13;;;;;;;;;;5076645;28;20052;-62
2022/02/28 09:48:48;;;;;;;17.55;10.15;;;;;;;;;;5075903;28;20052;-62
2022/02/28 09:51:15;;;;;;;17.25;9.93;;;;;;;;;;5076606;28;20055;-65
2022/02/28 09:53:42;;;;;;;15.52;9.18;;;;;;;;;;5076910;28;20044;-62
2022/02/28 09:56:09;;;;;;;18.13;9.63;;;;;;;;;;5076146;28;20148;-62
2022/02/28 09:58:36;;;;;;;18.40;10.05;;;;;;;;;;5075864;28;20045;-63
2022/02/28 10:01:04;;;;;;;15.02;9.20;;;;;;;;;;5076607;28;20472;-60
2022/02/28 10:03:31;;;;;;;16.88;9.95;;;;;;;;;;5076638;28;20049;-61
2022/02/28 10:06:01;;;;;;;16.23;9.02;;;;;;;;;;5075907;28;20045;-62
2022/02/28 10:08:40;;;;;;;14.97;9.27;;;;;;;;;;5075360;28;20049;-61
2022/02/28 10:11:07;;;;;;;15.48;9.57;;;;;;;;;;5075746;28;20135;-63
2022/02/28 10:13:39;;;;;;;16.05;9.35;;;;;;;;;;5075224;28;20131;-62
2022/02/28 10:16:05;;;;;;;18.90;10.60;;;;;;;;;;5076031;28;20516;-63
2022/02/28 10:18:32;;;;;;;17.90;10.35;;;;;;;;;;5075248;28;20478;-61
2022/02/28 10:21:01;;;;;;;16.48;10.10;;;;;;;;;;5075429;28;20493;-61
2022/02/28 10:23:28;;;;;;;17.83;10.23;;;;;;;;;;5076009;28;20099;-62
2022/02/28 10:25:57;;;;;;;18.55;10.27;;;;;;;;;;5075963;28;20087;-61
2022/02/28 10:28:26;;;;;;;17.48;9.57;;;;;;;;;;5074670;28;20556;-62
2022/02/28 10:30:56;;;;;;;17.33;10.38;;;;;;;;;;5075463;28;20154;-63
2022/02/28 10:33:29;;;;;;;22.05;9.77;;;;;;;;;;5075575;28;20045;-64
2022/02/28 10:36:10;;;;;;;19.17;10.32;;;;;;;;;;5075549;28;20084;-68
2022/02/28 10:38:44;;;;;;;18.88;9.95;;;;;;;;;;5075404;28;20067;-67
2022/02/28 10:41:20;;;;;;;15.05;9.68;;;;;;;;;;5075066;28;20055;-66
2022/02/28 10:43:48;;;;;;;16.27;9.98;;;;;;;;;;5074669;28;20132;-64
2022/02/28 10:46:18;;;;;;;14.73;10.40;;;;;;;;;;5074664;28;20524;-64
2022/02/28 10:48:55;;;;;;;16.83;10.07;;;;;;;;;;5074704;28;20144;-63
2022/02/28 10:51:22;;;;;;;20.80;10.40;;;;;;;;;;5070577;28;20127;-63
2022/02/28 10:54:08;;;;;;;15.77;9.65;;;;;;;;;;5071455;28;20129;-62
2022/02/28 10:56:49;;;;;;;15.95;10.23;;;;;;;;;;5073035;28;20109;-63
2022/02/28 10:59:17;;;;;;;13.98;9.27;;;;;;;;;;5072050;28;20048;-63
2022/02/28 11:01:44;;;;;;;13.98;9.07;;;;;;;;;;5072207;28;20062;-63
2022/02/28 11:04:12;;;;;;;15.15;8.77;;;;;;;;;;5071387;28;20044;-63
2022/02/28 11:06:41;;;;;;;16.30;9.55;;;;;;;;;;5072282;28;20075;-63
2022/02/28 11:09:10;;;;;;;16.58;10.20;;;;;;;;;;5072698;28;20052;-63
2022/02/28 11:11:37;;;;;;;14.68;9.20;;;;;;;;;;5072594;28;20109;-63
2022/02/28 11:14:04;;;;;;;16.48;8.80;;;;;;;;;;5073045;28;20055;-63
2022/02/28 11:16:33;;;;;;;15.55;9.95;;;;;;;;;;5072120;28;20078;-64
2022/02/28 11:19:02;;;;;;;19.17;12.48;;;;;;;;;;5071862;28;20056;-64
2022/02/28 11:21:29;;;;;;;17.95;10.13;;;;;;;;;;5072113;28;20053;-63
2022/02/28 11:23:57;;;;;;;17.30;9.93;;;;;;;;;;5072182;28;20052;-63
2022/02/28 11:26:25;;;;;;;21.42;12.35;;;;;;;;;;5072410;28;20444;-63
2022/02/28 11:28:52;;;;;;;17.70;10.00;;;;;;;;;;5072288;28;20156;-63
2022/02/28 11:31:19;;;;;;;16.60;9.88;;;;;;;;;;5072582;28;20040;-64
2022/02/28 11:34:03;;;;;;;14.88;9.13;;;;;;;;;;5072120;28;20048;-63
2022/02/28 11:36:46;;;;;;;15.40;10.10;;;;;;;;;;5071758;28;20464;-63
2022/02/28 11:39:13;;;;;;;16.08;9.70;;;;;;;;;;5070488;28;20497;-63
2022/02/28 11:41:41;;;;;;;17.98;9.60;;;;;;;;;;5071665;28;20059;-63
2022/02/28 11:44:09;;;;;;;16.35;9.80;;;;;;;;;;5071329;28;20048;-63
2022/02/28 11:46:39;;;;;;;16.38;9.98;;;;;;;;;;5071605;28;20045;-63
2022/02/28 11:49:08;;;;;;;14.52;9.77;;;;;;;;;;5071228;28;20103;-68
2022/02/28 11:51:36;;;;;;;17.92;10.57;;;;;;;;;;5072275;28;20064;-64
2022/02/28 11:54:05;;;;;;;18.27;9.85;;;;;;;;;;5071300;28;20101;-63
2022/02/28 11:56:58;;;;;;;16.92;9.70;;;;;;;;;;5071699;28;20059;-63
2022/02/28 11:59:30;;;;;;;17.15;9.65;;;;;;;;;;5071380;28;20045;-63
2022/02/28 12:02:03;;;;;;;17.85;10.93;;;;;;;;;;5070679;28;20048;-63
2022/02/28 12:04:38;;;;;;;17.83;10.68;;;;;;;;;;5070812;28;20048;-63
2022/02/28 12:07:06;;;;;;;18.65;10.75;;;;;;;;;;5070837;28;20051;-63
2022/02/28 12:09:37;;;;;;;16.45;10.93;;;;;;;;;;5070352;28;20131;-64
2022/02/28 12:12:31;;;;;;;18.58;11.05;;;;;;;;;;5070518;28;20052;-63
2022/02/28 12:15:17;;;;;;;18.30;11.18;;;;;;;;;;5070885;28;20413;-62
2022/02/28 12:18:11;;;;;;;17.63;11.68;;;;;;;;;;5070480;28;20048;-63
2022/02/28 12:20:43;;;;;;;16.95;10.15;;;;;;;;;;5067522;28;20189;-64
2022/02/28 12:23:26;;;;;;;14.63;10.23;;;;;;;;;;5070870;28;20091;-63
2022/02/28 12:26:10;;;;;;;15.35;9.57;;;;;;;;;;5070940;28;20679;-62
2022/02/28 12:28:59;;;;;;;15.63;9.52;;;;;;;;;;5070248;28;20052;-64
2022/02/28 12:31:37;;;;;;;15.77;9.68;;;;;;;;;;5070602;28;20056;-62
2022/02/28 12:34:08;;;;;;;13.75;8.88;;;;;;;;;;5070649;28;20517;-63
2022/02/28 12:36:36;;;;;;;14.45;9.48;;;;;;;;;;5070112;28;20076;-63
2022/02/28 12:39:07;;;;;;;20.00;10.68;;;;;;;;;;5070230;28;20048;-64
2022/02/28 12:41:36;;;;;;;14.15;9.15;;;;;;;;;;5070204;28;20041;-63
2022/02/28 12:44:06;;;;;;;14.95;8.48;;;;;;;;;;5070475;28;20048;-63
2022/02/28 12:46:35;;;;;;;19.63;11.87;;;;;;;;;;5069998;28;20050;-63
2022/02/28 12:49:03;;;;;;;16.02;9.88;;;;;;;;;;5069975;28;20048;-63
2022/02/28 12:51:32;;;;;;;14.52;8.65;;;;;;;;;;5069827;28;20059;-64
2022/02/28 12:54:05;;;;;;;16.00;9.05;;;;;;;;;;5069917;28;20051;-64
2022/02/28 12:56:32;;;;;;;11.88;8.30;;;;;;;;;;5069852;28;20048;-64
2022/02/28 12:58:59;;;;;;;14.13;9.63;;;;;;;;;;5069976;28;20063;-63
2022/02/28 13:01:41;;;;;;;13.48;8.25;;;;;;;;;;5070499;28;20428;-63
2022/02/28 13:04:09;;;;;;;15.07;9.95;;;;;;;;;;5070562;28;20041;-63
2022/02/28 13:06:38;;;;;;;13.80;8.38;;;;;;;;;;5070221;28;20520;-63
2022/02/28 13:09:07;;;;;;;16.55;9.70;;;;;;;;;;5069973;28;20056;-62
2022/02/28 13:11:37;;;;;;;14.23;8.85;;;;;;;;;;5069916;28;20045;-63
2022/02/28 13:14:06;;;;;;;12.80;7.90;;;;;;;;;;5070024;28;20124;-63
2022/02/28 13:16:38;;;;;;;15.48;8.43;;;;;;;;;;5069725;28;20067;-63
2022/02/28 13:19:08;;;;;;;14.00;9.25;;;;;;;;;;5069384;28;20048;-64
2022/02/28 13:21:37;;;;;;;14.35;9.05;;;;;;;;;;5069843;28;20421;-64
2022/02/28 13:24:09;;;;;;;13.85;8.20;;;;;;;;;;5069952;28;20080;-64
2022/02/28 13:26:38;;;;;;;11.00;7.72;;;;;;;;;;5069830;28;20045;-64
2022/02/28 13:29:06;;;;;;;12.60;7.60;;;;;;;;;;5069886;28;20089;-64
2022/02/28 13:31:36;;;;;;;13.75;8.15;;;;;;;;;;5069779;28;20479;-64
2022/02/28 13:34:04;;;;;;;13.75;8.70;;;;;;;;;;5069626;28;20106;-64
2022/02/28 13:36:36;;;;;;;15.57;9.80;;;;;;;;;;5069530;28;20045;-63
2022/02/28 13:39:05;;;;;;;12.80;8.02;;;;;;;;;;5069386;28;20045;-63
2022/02/28 13:41:40;;;;;;;13.32;8.15;;;;;;;;;;5069399;28;20044;-63
2022/02/28 13:44:10;;;;;;;12.27;7.90;;;;;;;;;;5069902;28;20067;-64
2022/02/28 13:46:38;;;;;;;13.63;8.32;;;;;;;;;;5069232;28;20044;-64
2022/02/28 13:49:05;;;;;;;12.57;7.80;;;;;;;;;;5069534;28;20369;-63
2022/02/28 13:51:41;;;;;;;11.73;7.00;;;;;;;;;;5069705;28;20049;-63
2022/02/28 13:54:11;;;;;;;11.07;6.70;;;;;;;;;;5070053;28;20044;-63
2022/02/28 13:56:39;;;;;;;11.40;7.82;;;;;;;;;;5069109;28;20494;-63
2022/02/28 13:59:10;;;;;;;11.15;7.35;;;;;;;;;;5069198;28;20041;-63
2022/02/28 14:01:50;;;;;;;12.63;7.55;;;;;;;;;;5069308;28;20052;-63
2022/02/28 14:04:17;;;;;;;11.00;6.90;;;;;;;;;;5072494;28;20094;-64
2022/02/28 14:06:44;;;;;;;11.50;7.07;;;;;;;;;;5072793;28;20040;-63
2022/02/28 14:09:11;;;;;;;13.63;7.60;;;;;;;;;;5072597;28;20060;-65
2022/02/28 14:11:38;;;;;;;13.45;8.05;;;;;;;;;;5072920;28;20048;-63
2022/02/28 14:14:11;;;;;;;10.15;7.13;;;;;;;;;;5073269;28;20055;-63
2022/02/28 14:16:40;;;;;;;16.38;8.38;;;;;;;;;;5072829;28;20330;-64
2022/02/28 14:19:09;;;;;;;15.57;9.93;;;;;;;;;;5068700;28;20137;-64
2022/02/28 14:21:39;;;;;;;11.80;8.30;;;;;;;;;;5069449;28;20060;-63
2022/02/28 14:24:09;;;;;;;14.17;8.23;;;;;;;;;;5081829;22;20414;-58
2022/02/28 14:26:38;;;;;;;12.68;7.97;;;;;;;;;;5073570;28;20131;-59
2022/02/28 14:29:08;;;;;;;13.40;8.00;;;;;;;;;;5073273;28;20050;-58